sensor_id;sensor_type;location;lat;lon;timestamp;P1;durP1;ratioP1;P2;durP2;ratioP2
37945;SDS011;23769;52.478;13.448;2022-07-21T00:00:12;8.98;;;6.05;;
37945;SDS011;23769;52.478;13.448;2022-07-21T00:02:39;9.57;;;5.65;;
37945;SDS011;23769;52.478;13.448;2022-07-21T00:05:06;11.07;;;6.20;;
37945;SDS011;23769;52.478;13.448;2022-07-21T00:07:34;10.23;;;6.30;;
37945;SDS011;23769;52.478;13.448;2022-07-21T00:10:01;14.23;;;6.45;;
37945;SDS011;23769;52.478;13.448;2022-07-21T00:12:28;9.93;;;5.90;;
37945;SDS011;23769;52.478;13.448;2022-07-21T00:14:56;9.07;;;5.88;;
37945;SDS011;23769;52.478;13.448;2022-07-21T00:17:23;12.07;;;5.78;;
37945;SDS011;23769;52.478;13.448;2022-07-21T00:19:50;10.35;;;5.68;;
37945;SDS011;23769;52.478;13.448;2022-07-21T00:22:17;11.25;;;6.38;;
37945;SDS011;23769;52.478;13.448;2022-07-21T00:24:44;11.00;;;6.55;;
37945;SDS011;23769;52.478;13.448;2022-07-21T00:27:12;11.43;;;6.13;;
37945;SDS011;23769;52.478;13.448;2022-07-21T00:29:39;13.70;;;6.93;;
37945;SDS011;23769;52.478;13.448;2022-07-21T00:32:07;10.93;;;6.65;;
37945;SDS011;23769;52.478;13.448;2022-07-21T00:34:34;10.73;;;6.35;;
37945;SDS011;23769;52.478;13.448;2022-07-21T00:37:01;12.52;;;7.18;;
37945;SDS011;23769;52.478;13.448;2022-07-21T00:39:28;17.60;;;7.00;;
37945;SDS011;23769;52.478;13.448;2022-07-21T00:41:56;10.65;;;6.57;;
37945;SDS011;23769;52.478;13.448;2022-07-21T00:44:24;10.15;;;6.30;;
37945;SDS011;23769;52.478;13.448;2022-07-21T00:46:51;11.88;;;6.65;;
37945;SDS011;23769;52.478;13.448;2022-07-21T00:49:20;10.55;;;7.35;;
37945;SDS011;23769;52.478;13.448;2022-07-21T00:51:47;10.82;;;6.82;;
37945;SDS011;23769;52.478;13.448;2022-07-21T00:54:15;11.88;;;5.70;;
37945;SDS011;23769;52.478;13.448;2022-07-21T00:56:42;9.27;;;6.45;;
37945;SDS011;23769;52.478;13.448;2022-07-21T00:59:10;11.73;;;7.53;;
37945;SDS011;23769;52.478;13.448;2022-07-21T01:01:37;11.48;;;6.22;;
37945;SDS011;23769;52.478;13.448;2022-07-21T01:04:04;10.13;;;6.30;;
37945;SDS011;23769;52.478;13.448;2022-07-21T01:06:33;12.82;;;6.63;;
37945;SDS011;23769;52.478;13.448;2022-07-21T01:09:00;9.82;;;6.40;;
37945;SDS011;23769;52.478;13.448;2022-07-21T01:11:27;16.85;;;7.18;;
37945;SDS011;23769;52.478;13.448;2022-07-21T01:13:54;11.52;;;6.97;;
37945;SDS011;23769;52.478;13.448;2022-07-21T01:16:21;10.82;;;6.65;;
37945;SDS011;23769;52.478;13.448;2022-07-21T01:18:48;11.25;;;6.63;;
37945;SDS011;23769;52.478;13.448;2022-07-21T01:21:27;12.00;;;7.13;;
37945;SDS011;23769;52.478;13.448;2022-07-21T01:23:54;11.55;;;7.47;;
37945;SDS011;23769;52.478;13.448;2022-07-21T01:26:21;11.23;;;6.28;;
37945;SDS011;23769;52.478;13.448;2022-07-21T01:28:48;13.43;;;6.55;;
37945;SDS011;23769;52.478;13.448;2022-07-21T01:31:15;11.93;;;6.22;;
37945;SDS011;23769;52.478;13.448;2022-07-21T01:33:42;12.57;;;6.38;;
37945;SDS011;23769;52.478;13.448;2022-07-21T01:36:09;11.48;;;6.53;;
37945;SDS011;23769;52.478;13.448;2022-07-21T01:38:38;12.98;;;6.45;;
37945;SDS011;23769;52.478;13.448;2022-07-21T01:41:22;10.18;;;6.15;;
37945;SDS011;23769;52.478;13.448;2022-07-21T01:43:57;12.32;;;7.95;;
37945;SDS011;23769;52.478;13.448;2022-07-21T01:46:24;10.00;;;6.65;;
37945;SDS011;23769;52.478;13.448;2022-07-21T01:48:51;14.75;;;9.57;;
37945;SDS011;23769;52.478;13.448;2022-07-21T01:51:19;11.00;;;7.25;;
37945;SDS011;23769;52.478;13.448;2022-07-21T01:53:47;10.15;;;6.28;;
37945;SDS011;23769;52.478;13.448;2022-07-21T01:56:14;10.77;;;6.72;;
37945;SDS011;23769;52.478;13.448;2022-07-21T01:58:41;12.95;;;5.78;;
37945;SDS011;23769;52.478;13.448;2022-07-21T02:01:08;10.30;;;6.82;;
37945;SDS011;23769;52.478;13.448;2022-07-21T02:03:35;9.70;;;6.20;;
37945;SDS011;23769;52.478;13.448;2022-07-21T02:06:03;10.43;;;5.93;;
37945;SDS011;23769;52.478;13.448;2022-07-21T02:08:32;8.90;;;6.28;;
37945;SDS011;23769;52.478;13.448;2022-07-21T02:11:02;11.23;;;6.20;;
37945;SDS011;23769;52.478;13.448;2022-07-21T02:13:29;11.57;;;6.47;;
37945;SDS011;23769;52.478;13.448;2022-07-21T02:15:56;7.47;;;5.97;;
37945;SDS011;23769;52.478;13.448;2022-07-21T02:18:23;12.52;;;6.22;;
37945;SDS011;23769;52.478;13.448;2022-07-21T02:20:50;9.20;;;5.65;;
37945;SDS011;23769;52.478;13.448;2022-07-21T02:23:18;11.13;;;6.45;;
37945;SDS011;23769;52.478;13.448;2022-07-21T02:25:46;9.40;;;6.28;;
37945;SDS011;23769;52.478;13.448;2022-07-21T02:28:14;9.13;;;6.45;;
37945;SDS011;23769;52.478;13.448;2022-07-21T02:30:41;9.48;;;5.85;;
37945;SDS011;23769;52.478;13.448;2022-07-21T02:33:09;8.32;;;5.63;;
37945;SDS011;23769;52.478;13.448;2022-07-21T02:35:36;10.32;;;6.78;;
37945;SDS011;23769;52.478;13.448;2022-07-21T02:38:03;9.93;;;6.25;;
37945;SDS011;23769;52.478;13.448;2022-07-21T02:40:30;12.02;;;6.05;;
37945;SDS011;23769;52.478;13.448;2022-07-21T02:42:58;8.10;;;6.30;;
37945;SDS011;23769;52.478;13.448;2022-07-21T02:45:26;12.45;;;5.72;;
37945;SDS011;23769;52.478;13.448;2022-07-21T02:47:54;10.32;;;5.93;;
37945;SDS011;23769;52.478;13.448;2022-07-21T02:50:22;9.50;;;5.78;;
37945;SDS011;23769;52.478;13.448;2022-07-21T02:52:49;10.02;;;6.75;;
37945;SDS011;23769;52.478;13.448;2022-07-21T02:55:16;13.50;;;5.95;;
37945;SDS011;23769;52.478;13.448;2022-07-21T02:57:44;8.93;;;6.28;;
37945;SDS011;23769;52.478;13.448;2022-07-21T03:00:12;10.35;;;6.20;;
37945;SDS011;23769;52.478;13.448;2022-07-21T03:02:40;13.30;;;6.25;;
37945;SDS011;23769;52.478;13.448;2022-07-21T03:05:08;10.43;;;5.88;;
37945;SDS011;23769;52.478;13.448;2022-07-21T03:07:35;10.52;;;6.03;;
37945;SDS011;23769;52.478;13.448;2022-07-21T03:10:02;8.23;;;5.82;;
37945;SDS011;23769;52.478;13.448;2022-07-21T03:12:29;11.07;;;5.50;;
37945;SDS011;23769;52.478;13.448;2022-07-21T03:14:56;10.23;;;5.57;;
37945;SDS011;23769;52.478;13.448;2022-07-21T03:17:23;14.45;;;6.20;;
37945;SDS011;23769;52.478;13.448;2022-07-21T03:19:52;16.02;;;6.43;;
37945;SDS011;23769;52.478;13.448;2022-07-21T03:22:19;8.73;;;5.53;;
37945;SDS011;23769;52.478;13.448;2022-07-21T03:24:46;10.38;;;6.05;;
37945;SDS011;23769;52.478;13.448;2022-07-21T03:27:15;12.38;;;5.53;;
37945;SDS011;23769;52.478;13.448;2022-07-21T03:29:43;7.70;;;4.55;;
37945;SDS011;23769;52.478;13.448;2022-07-21T03:32:10;9.02;;;5.53;;
37945;SDS011;23769;52.478;13.448;2022-07-21T03:34:37;8.75;;;5.30;;
37945;SDS011;23769;52.478;13.448;2022-07-21T03:37:05;10.98;;;5.40;;
37945;SDS011;23769;52.478;13.448;2022-07-21T03:39:33;11.05;;;5.40;;
37945;SDS011;23769;52.478;13.448;2022-07-21T03:42:00;10.48;;;5.18;;
37945;SDS011;23769;52.478;13.448;2022-07-21T03:44:27;8.95;;;5.50;;
37945;SDS011;23769;52.478;13.448;2022-07-21T03:46:54;7.38;;;5.60;;
37945;SDS011;23769;52.478;13.448;2022-07-21T03:49:23;7.18;;;5.30;;
37945;SDS011;23769;52.478;13.448;2022-07-21T03:51:50;11.20;;;5.13;;
37945;SDS011;23769;52.478;13.448;2022-07-21T03:54:19;11.38;;;4.70;;
37945;SDS011;23769;52.478;13.448;2022-07-21T03:56:46;8.55;;;5.32;;
37945;SDS011;23769;52.478;13.448;2022-07-21T03:59:13;11.82;;;5.10;;
37945;SDS011;23769;52.478;13.448;2022-07-21T04:01:41;10.30;;;4.70;;
37945;SDS011;23769;52.478;13.448;2022-07-21T04:04:08;6.82;;;4.93;;
37945;SDS011;23769;52.478;13.448;2022-07-21T04:06:35;8.70;;;4.90;;
37945;SDS011;23769;52.478;13.448;2022-07-21T04:09:02;6.53;;;4.00;;
37945;SDS011;23769;52.478;13.448;2022-07-21T04:11:30;8.40;;;4.63;;
37945;SDS011;23769;52.478;13.448;2022-07-21T04:13:58;7.63;;;4.85;;
37945;SDS011;23769;52.478;13.448;2022-07-21T04:16:25;8.13;;;4.95;;
37945;SDS011;23769;52.478;13.448;2022-07-21T04:18:52;10.13;;;5.40;;
37945;SDS011;23769;52.478;13.448;2022-07-21T04:21:19;8.07;;;5.13;;
37945;SDS011;23769;52.478;13.448;2022-07-21T04:23:46;12.00;;;4.68;;
37945;SDS011;23769;52.478;13.448;2022-07-21T04:26:13;9.70;;;4.80;;
37945;SDS011;23769;52.478;13.448;2022-07-21T04:28:42;7.75;;;4.65;;
37945;SDS011;23769;52.478;13.448;2022-07-21T04:31:09;9.70;;;5.65;;
37945;SDS011;23769;52.478;13.448;2022-07-21T04:33:36;17.25;;;12.07;;
37945;SDS011;23769;52.478;13.448;2022-07-21T04:36:03;7.63;;;5.80;;
37945;SDS011;23769;52.478;13.448;2022-07-21T04:38:30;10.00;;;5.35;;
37945;SDS011;23769;52.478;13.448;2022-07-21T04:40:57;8.15;;;5.03;;
37945;SDS011;23769;52.478;13.448;2022-07-21T04:43:24;8.13;;;5.53;;
37945;SDS011;23769;52.478;13.448;2022-07-21T04:45:53;12.00;;;5.70;;
37945;SDS011;23769;52.478;13.448;2022-07-21T04:48:20;14.40;;;11.25;;
37945;SDS011;23769;52.478;13.448;2022-07-21T04:50:47;7.47;;;4.43;;
37945;SDS011;23769;52.478;13.448;2022-07-21T04:53:14;12.10;;;5.45;;
37945;SDS011;23769;52.478;13.448;2022-07-21T04:55:41;10.10;;;4.72;;
37945;SDS011;23769;52.478;13.448;2022-07-21T04:58:08;18.30;;;6.18;;
37945;SDS011;23769;52.478;13.448;2022-07-21T05:00:35;16.60;;;11.63;;
37945;SDS011;23769;52.478;13.448;2022-07-21T05:03:04;13.30;;;8.85;;
37945;SDS011;23769;52.478;13.448;2022-07-21T05:05:31;13.30;;;7.15;;
37945;SDS011;23769;52.478;13.448;2022-07-21T05:07:58;10.70;;;6.95;;
37945;SDS011;23769;52.478;13.448;2022-07-21T05:10:25;13.50;;;6.40;;
37945;SDS011;23769;52.478;13.448;2022-07-21T05:12:52;12.68;;;7.68;;
37945;SDS011;23769;52.478;13.448;2022-07-21T05:15:19;13.73;;;8.02;;
37945;SDS011;23769;52.478;13.448;2022-07-21T05:17:46;16.77;;;8.63;;
37945;SDS011;23769;52.478;13.448;2022-07-21T05:20:15;14.13;;;8.35;;
37945;SDS011;23769;52.478;13.448;2022-07-21T05:22:42;16.83;;;8.57;;
37945;SDS011;23769;52.478;13.448;2022-07-21T05:25:09;13.48;;;9.73;;
37945;SDS011;23769;52.478;13.448;2022-07-21T05:27:36;33.45;;;10.63;;
37945;SDS011;23769;52.478;13.448;2022-07-21T05:30:03;19.80;;;11.25;;
37945;SDS011;23769;52.478;13.448;2022-07-21T05:32:31;17.77;;;12.35;;
37945;SDS011;23769;52.478;13.448;2022-07-21T05:34:58;25.30;;;12.18;;
37945;SDS011;23769;52.478;13.448;2022-07-21T05:37:26;10.98;;;9.43;;
37945;SDS011;23769;52.478;13.448;2022-07-21T05:39:53;15.15;;;10.65;;
37945;SDS011;23769;52.478;13.448;2022-07-21T05:42:21;11.95;;;9.73;;
37945;SDS011;23769;52.478;13.448;2022-07-21T05:44:48;14.45;;;11.25;;
37945;SDS011;23769;52.478;13.448;2022-07-21T05:47:15;25.48;;;13.27;;
37945;SDS011;23769;52.478;13.448;2022-07-21T05:49:42;16.60;;;12.23;;
37945;SDS011;23769;52.478;13.448;2022-07-21T05:52:09;18.48;;;13.15;;
37945;SDS011;23769;52.478;13.448;2022-07-21T05:54:38;18.30;;;12.20;;
37945;SDS011;23769;52.478;13.448;2022-07-21T05:57:05;15.70;;;12.15;;
37945;SDS011;23769;52.478;13.448;2022-07-21T05:59:32;15.18;;;12.43;;
37945;SDS011;23769;52.478;13.448;2022-07-21T06:01:59;15.98;;;13.05;;
37945;SDS011;23769;52.478;13.448;2022-07-21T06:04:26;16.48;;;12.23;;
37945;SDS011;23769;52.478;13.448;2022-07-21T06:06:54;17.88;;;13.43;;
37945;SDS011;23769;52.478;13.448;2022-07-21T06:09:21;13.38;;;11.98;;
37945;SDS011;23769;52.478;13.448;2022-07-21T06:11:49;16.42;;;12.63;;
37945;SDS011;23769;52.478;13.448;2022-07-21T06:14:16;13.23;;;11.75;;
37945;SDS011;23769;52.478;13.448;2022-07-21T06:16:43;16.15;;;12.05;;
37945;SDS011;23769;52.478;13.448;2022-07-21T06:19:11;14.70;;;12.15;;
37945;SDS011;23769;52.478;13.448;2022-07-21T06:21:38;14.70;;;11.13;;
37945;SDS011;23769;52.478;13.448;2022-07-21T06:24:05;16.88;;;13.63;;
37945;SDS011;23769;52.478;13.448;2022-07-21T06:26:32;14.68;;;11.73;;
37945;SDS011;23769;52.478;13.448;2022-07-21T06:29:01;18.00;;;12.77;;
37945;SDS011;23769;52.478;13.448;2022-07-21T06:31:28;16.63;;;11.65;;
37945;SDS011;23769;52.478;13.448;2022-07-21T06:33:55;13.57;;;11.48;;
37945;SDS011;23769;52.478;13.448;2022-07-21T06:36:22;15.05;;;11.93;;
37945;SDS011;23769;52.478;13.448;2022-07-21T06:38:49;16.45;;;11.93;;
37945;SDS011;23769;52.478;13.448;2022-07-21T06:41:16;13.52;;;10.77;;
37945;SDS011;23769;52.478;13.448;2022-07-21T06:43:43;14.32;;;11.80;;
37945;SDS011;23769;52.478;13.448;2022-07-21T06:46:12;12.55;;;10.75;;
37945;SDS011;23769;52.478;13.448;2022-07-21T06:48:39;12.85;;;10.82;;
37945;SDS011;23769;52.478;13.448;2022-07-21T06:51:06;15.45;;;12.20;;
37945;SDS011;23769;52.478;13.448;2022-07-21T06:53:33;11.82;;;10.50;;
37945;SDS011;23769;52.478;13.448;2022-07-21T06:56:00;14.85;;;10.77;;
37945;SDS011;23769;52.478;13.448;2022-07-21T06:58:27;16.08;;;12.50;;
37945;SDS011;23769;52.478;13.448;2022-07-21T07:00:55;13.57;;;10.63;;
37945;SDS011;23769;52.478;13.448;2022-07-21T07:03:23;12.77;;;10.27;;
37945;SDS011;23769;52.478;13.448;2022-07-21T07:05:50;13.90;;;11.73;;
37945;SDS011;23769;52.478;13.448;2022-07-21T07:08:18;13.73;;;12.15;;
37945;SDS011;23769;52.478;13.448;2022-07-21T07:10:45;14.32;;;10.77;;
37945;SDS011;23769;52.478;13.448;2022-07-21T07:13:13;12.35;;;9.63;;
37945;SDS011;23769;52.478;13.448;2022-07-21T07:15:40;13.38;;;10.73;;
37945;SDS011;23769;52.478;13.448;2022-07-21T07:18:08;11.38;;;9.88;;
37945;SDS011;23769;52.478;13.448;2022-07-21T07:20:36;12.63;;;10.15;;
37945;SDS011;23769;52.478;13.448;2022-07-21T07:23:03;13.73;;;9.95;;
37945;SDS011;23769;52.478;13.448;2022-07-21T07:25:30;11.52;;;9.80;;
37945;SDS011;23769;52.478;13.448;2022-07-21T07:27:58;13.20;;;10.18;;
37945;SDS011;23769;52.478;13.448;2022-07-21T07:30:25;11.27;;;10.10;;
37945;SDS011;23769;52.478;13.448;2022-07-21T07:32:52;10.85;;;9.75;;
37945;SDS011;23769;52.478;13.448;2022-07-21T07:35:19;16.48;;;10.52;;
37945;SDS011;23769;52.478;13.448;2022-07-21T07:37:48;13.55;;;10.10;;
37945;SDS011;23769;52.478;13.448;2022-07-21T07:40:17;14.00;;;11.13;;
37945;SDS011;23769;52.478;13.448;2022-07-21T07:42:44;11.73;;;9.32;;
37945;SDS011;23769;52.478;13.448;2022-07-21T07:45:12;14.77;;;8.80;;
37945;SDS011;23769;52.478;13.448;2022-07-21T07:47:39;15.23;;;10.13;;
37945;SDS011;23769;52.478;13.448;2022-07-21T07:50:07;11.45;;;9.07;;
37945;SDS011;23769;52.478;13.448;2022-07-21T07:52:35;12.52;;;9.40;;
37945;SDS011;23769;52.478;13.448;2022-07-21T07:55:04;10.75;;;8.90;;
37945;SDS011;23769;52.478;13.448;2022-07-21T07:57:33;10.73;;;9.52;;
37945;SDS011;23769;52.478;13.448;2022-07-21T08:00:00;9.82;;;8.85;;
37945;SDS011;23769;52.478;13.448;2022-07-21T08:02:27;12.35;;;9.35;;
37945;SDS011;23769;52.478;13.448;2022-07-21T08:04:54;11.70;;;9.02;;
37945;SDS011;23769;52.478;13.448;2022-07-21T08:07:22;11.63;;;9.35;;
37945;SDS011;23769;52.478;13.448;2022-07-21T08:09:49;11.55;;;9.80;;
37945;SDS011;23769;52.478;13.448;2022-07-21T08:12:17;10.18;;;8.73;;
37945;SDS011;23769;52.478;13.448;2022-07-21T08:14:44;11.02;;;9.10;;
37945;SDS011;23769;52.478;13.448;2022-07-21T08:17:11;10.85;;;9.15;;
37945;SDS011;23769;52.478;13.448;2022-07-21T08:19:38;14.00;;;10.10;;
37945;SDS011;23769;52.478;13.448;2022-07-21T08:22:05;12.10;;;9.32;;
37945;SDS011;23769;52.478;13.448;2022-07-21T08:24:33;10.23;;;8.93;;
37945;SDS011;23769;52.478;13.448;2022-07-21T08:27:00;17.40;;;10.60;;
37945;SDS011;23769;52.478;13.448;2022-07-21T08:29:28;9.90;;;8.65;;
37945;SDS011;23769;52.478;13.448;2022-07-21T08:31:55;12.38;;;9.50;;
37945;SDS011;23769;52.478;13.448;2022-07-21T08:34:22;16.02;;;10.98;;
37945;SDS011;23769;52.478;13.448;2022-07-21T08:36:50;14.48;;;9.77;;
37945;SDS011;23769;52.478;13.448;2022-07-21T08:39:17;12.45;;;9.90;;
37945;SDS011;23769;52.478;13.448;2022-07-21T08:41:44;14.90;;;11.25;;
37945;SDS011;23769;52.478;13.448;2022-07-21T08:44:11;11.82;;;10.20;;
37945;SDS011;23769;52.478;13.448;2022-07-21T08:46:40;11.93;;;9.10;;
37945;SDS011;23769;52.478;13.448;2022-07-21T08:49:08;11.93;;;9.60;;
37945;SDS011;23769;52.478;13.448;2022-07-21T08:51:36;12.32;;;9.82;;
37945;SDS011;23769;52.478;13.448;2022-07-21T08:54:03;11.27;;;9.68;;
37945;SDS011;23769;52.478;13.448;2022-07-21T08:56:30;13.45;;;9.25;;
37945;SDS011;23769;52.478;13.448;2022-07-21T08:58:58;11.68;;;8.77;;
37945;SDS011;23769;52.478;13.448;2022-07-21T09:01:25;19.38;;;10.25;;
37945;SDS011;23769;52.478;13.448;2022-07-21T09:03:53;13.05;;;9.98;;
37945;SDS011;23769;52.478;13.448;2022-07-21T09:06:20;12.30;;;10.27;;
37945;SDS011;23769;52.478;13.448;2022-07-21T09:08:48;14.27;;;9.82;;
37945;SDS011;23769;52.478;13.448;2022-07-21T09:11:17;11.30;;;9.57;;
37945;SDS011;23769;52.478;13.448;2022-07-21T09:13:45;13.95;;;8.90;;
37945;SDS011;23769;52.478;13.448;2022-07-21T09:16:20;11.57;;;10.18;;
37945;SDS011;23769;52.478;13.448;2022-07-21T09:18:59;10.93;;;9.48;;
37945;SDS011;23769;52.478;13.448;2022-07-21T09:21:26;17.42;;;13.63;;
37945;SDS011;23769;52.478;13.448;2022-07-21T09:26:39;15.57;;;8.63;;
37945;SDS011;23769;52.478;13.448;2022-07-21T09:29:22;15.05;;;10.40;;
37945;SDS011;23769;52.478;13.448;2022-07-21T09:31:49;10.05;;;8.43;;
37945;SDS011;23769;52.478;13.448;2022-07-21T09:34:18;15.60;;;9.55;;
37945;SDS011;23769;52.478;13.448;2022-07-21T09:36:53;13.15;;;10.15;;
37945;SDS011;23769;52.478;13.448;2022-07-21T09:42:10;10.68;;;8.30;;
37945;SDS011;23769;52.478;13.448;2022-07-21T09:44:37;9.68;;;7.78;;
37945;SDS011;23769;52.478;13.448;2022-07-21T09:47:09;8.48;;;7.50;;
37945;SDS011;23769;52.478;13.448;2022-07-21T09:49:38;13.43;;;9.45;;
37945;SDS011;23769;52.478;13.448;2022-07-21T09:52:17;12.43;;;8.82;;
37945;SDS011;23769;52.478;13.448;2022-07-21T09:54:44;14.13;;;11.75;;
37945;SDS011;23769;52.478;13.448;2022-07-21T09:57:11;9.73;;;7.25;;
37945;SDS011;23769;52.478;13.448;2022-07-21T09:59:38;7.40;;;6.38;;
37945;SDS011;23769;52.478;13.448;2022-07-21T10:02:05;8.85;;;6.80;;
37945;SDS011;23769;52.478;13.448;2022-07-21T10:04:33;11.10;;;7.45;;
37945;SDS011;23769;52.478;13.448;2022-07-21T10:07:02;9.13;;;8.00;;
37945;SDS011;23769;52.478;13.448;2022-07-21T10:09:29;11.07;;;7.50;;
37945;SDS011;23769;52.478;13.448;2022-07-21T10:11:56;8.68;;;7.25;;
37945;SDS011;23769;52.478;13.448;2022-07-21T10:14:23;11.63;;;8.30;;
37945;SDS011;23769;52.478;13.448;2022-07-21T10:16:51;7.60;;;6.35;;
37945;SDS011;23769;52.478;13.448;2022-07-21T10:19:19;7.93;;;6.60;;
37945;SDS011;23769;52.478;13.448;2022-07-21T10:21:51;8.70;;;6.28;;
37945;SDS011;23769;52.478;13.448;2022-07-21T10:24:22;9.07;;;6.32;;
37945;SDS011;23769;52.478;13.448;2022-07-21T10:26:59;11.23;;;6.95;;
37945;SDS011;23769;52.478;13.448;2022-07-21T10:32:12;7.82;;;6.68;;
37945;SDS011;23769;52.478;13.448;2022-07-21T10:34:39;7.25;;;6.00;;
37945;SDS011;23769;52.478;13.448;2022-07-21T10:37:06;11.32;;;8.05;;
37945;SDS011;23769;52.478;13.448;2022-07-21T10:39:34;10.25;;;6.18;;
37945;SDS011;23769;52.478;13.448;2022-07-21T10:42:13;7.45;;;5.90;;
37945;SDS011;23769;52.478;13.448;2022-07-21T10:44:41;11.32;;;6.15;;
37945;SDS011;23769;52.478;13.448;2022-07-21T10:47:10;9.82;;;6.20;;
37945;SDS011;23769;52.478;13.448;2022-07-21T10:55:17;8.63;;;6.10;;
37945;SDS011;23769;52.478;13.448;2022-07-21T10:58:08;7.72;;;6.05;;
37945;SDS011;23769;52.478;13.448;2022-07-21T11:00:35;7.93;;;5.82;;
37945;SDS011;23769;52.478;13.448;2022-07-21T11:03:03;7.85;;;5.03;;
37945;SDS011;23769;52.478;13.448;2022-07-21T11:05:32;7.38;;;4.95;;
37945;SDS011;23769;52.478;13.448;2022-07-21T11:08:09;7.75;;;5.32;;
37945;SDS011;23769;52.478;13.448;2022-07-21T11:10:38;9.68;;;7.68;;
37945;SDS011;23769;52.478;13.448;2022-07-21T11:13:06;13.82;;;9.93;;
37945;SDS011;23769;52.478;13.448;2022-07-21T11:15:42;6.47;;;5.10;;
37945;SDS011;23769;52.478;13.448;2022-07-21T11:18:09;7.93;;;5.05;;
37945;SDS011;23769;52.478;13.448;2022-07-21T11:20:37;7.63;;;4.45;;
37945;SDS011;23769;52.478;13.448;2022-07-21T11:23:04;6.90;;;4.72;;
37945;SDS011;23769;52.478;13.448;2022-07-21T11:25:31;5.63;;;4.35;;
37945;SDS011;23769;52.478;13.448;2022-07-21T11:28:01;7.95;;;5.50;;
37945;SDS011;23769;52.478;13.448;2022-07-21T11:30:28;10.05;;;4.30;;
37945;SDS011;23769;52.478;13.448;2022-07-21T11:32:55;5.60;;;4.88;;
37945;SDS011;23769;52.478;13.448;2022-07-21T11:35:22;6.03;;;4.75;;
37945;SDS011;23769;52.478;13.448;2022-07-21T11:37:50;7.28;;;5.35;;
37945;SDS011;23769;52.478;13.448;2022-07-21T11:40:17;6.75;;;4.80;;
37945;SDS011;23769;52.478;13.448;2022-07-21T11:42:46;10.32;;;6.88;;
37945;SDS011;23769;52.478;13.448;2022-07-21T11:45:15;10.45;;;6.05;;
37945;SDS011;23769;52.478;13.448;2022-07-21T11:47:42;12.95;;;5.93;;
37945;SDS011;23769;52.478;13.448;2022-07-21T11:50:10;15.27;;;6.53;;
37945;SDS011;23769;52.478;13.448;2022-07-21T11:52:38;8.40;;;5.40;;
37945;SDS011;23769;52.478;13.448;2022-07-21T11:55:06;9.23;;;6.28;;
37945;SDS011;23769;52.478;13.448;2022-07-21T11:57:33;9.70;;;4.97;;
37945;SDS011;23769;52.478;13.448;2022-07-21T12:00:01;7.68;;;5.00;;
37945;SDS011;23769;52.478;13.448;2022-07-21T12:02:32;8.15;;;5.45;;
37945;SDS011;23769;52.478;13.448;2022-07-21T12:04:59;6.82;;;5.93;;
37945;SDS011;23769;52.478;13.448;2022-07-21T12:07:28;6.88;;;5.20;;
37945;SDS011;23769;52.478;13.448;2022-07-21T12:09:57;10.27;;;6.03;;
37945;SDS011;23769;52.478;13.448;2022-07-21T12:12:28;5.85;;;5.25;;
37945;SDS011;23769;52.478;13.448;2022-07-21T12:14:55;19.75;;;6.22;;
37945;SDS011;23769;52.478;13.448;2022-07-21T12:17:34;9.57;;;5.80;;
37945;SDS011;23769;52.478;13.448;2022-07-21T12:20:01;22.35;;;7.78;;
37945;SDS011;23769;52.478;13.448;2022-07-21T12:22:32;16.08;;;6.18;;
37945;SDS011;23769;52.478;13.448;2022-07-21T12:24:59;7.20;;;5.95;;
37945;SDS011;23769;52.478;13.448;2022-07-21T12:27:26;10.95;;;5.47;;
37945;SDS011;23769;52.478;13.448;2022-07-21T12:29:54;7.13;;;5.22;;
37945;SDS011;23769;52.478;13.448;2022-07-21T12:32:41;8.25;;;5.20;;
37945;SDS011;23769;52.478;13.448;2022-07-21T12:35:19;9.60;;;5.65;;
37945;SDS011;23769;52.478;13.448;2022-07-21T12:38:00;8.90;;;7.25;;
37945;SDS011;23769;52.478;13.448;2022-07-21T12:40:27;13.57;;;7.05;;
37945;SDS011;23769;52.478;13.448;2022-07-21T12:43:11;13.32;;;7.35;;
37945;SDS011;23769;52.478;13.448;2022-07-21T12:45:46;10.65;;;6.68;;
37945;SDS011;23769;52.478;13.448;2022-07-21T12:48:16;10.23;;;5.20;;
37945;SDS011;23769;52.478;13.448;2022-07-21T12:50:56;7.18;;;4.75;;
37945;SDS011;23769;52.478;13.448;2022-07-21T12:53:23;7.05;;;5.65;;
37945;SDS011;23769;52.478;13.448;2022-07-21T12:55:50;9.45;;;5.45;;
37945;SDS011;23769;52.478;13.448;2022-07-21T12:58:18;9.07;;;5.68;;
37945;SDS011;23769;52.478;13.448;2022-07-21T13:00:45;9.15;;;4.22;;
37945;SDS011;23769;52.478;13.448;2022-07-21T13:03:12;6.60;;;4.90;;
37945;SDS011;23769;52.478;13.448;2022-07-21T13:05:41;11.40;;;5.40;;
37945;SDS011;23769;52.478;13.448;2022-07-21T13:08:08;11.73;;;5.30;;
37945;SDS011;23769;52.478;13.448;2022-07-21T13:10:35;6.95;;;4.93;;
37945;SDS011;23769;52.478;13.448;2022-07-21T13:13:02;8.32;;;4.53;;
37945;SDS011;23769;52.478;13.448;2022-07-21T13:15:29;8.18;;;5.60;;
37945;SDS011;23769;52.478;13.448;2022-07-21T13:17:56;9.02;;;5.55;;
37945;SDS011;23769;52.478;13.448;2022-07-21T13:20:23;7.05;;;6.07;;
37945;SDS011;23769;52.478;13.448;2022-07-21T13:22:52;6.28;;;5.22;;
37945;SDS011;23769;52.478;13.448;2022-07-21T13:25:19;6.75;;;4.55;;
37945;SDS011;23769;52.478;13.448;2022-07-21T13:27:46;12.38;;;5.60;;
37945;SDS011;23769;52.478;13.448;2022-07-21T13:30:13;5.70;;;4.93;;
37945;SDS011;23769;52.478;13.448;2022-07-21T13:32:40;8.18;;;4.88;;
37945;SDS011;23769;52.478;13.448;2022-07-21T13:35:07;9.13;;;5.30;;
37945;SDS011;23769;52.478;13.448;2022-07-21T13:37:34;7.18;;;5.65;;
37945;SDS011;23769;52.478;13.448;2022-07-21T13:40:04;9.40;;;5.55;;
37945;SDS011;23769;52.478;13.448;2022-07-21T13:42:32;11.57;;;6.05;;
37945;SDS011;23769;52.478;13.448;2022-07-21T13:44:59;9.05;;;5.75;;
37945;SDS011;23769;52.478;13.448;2022-07-21T13:47:26;6.80;;;5.53;;
37945;SDS011;23769;52.478;13.448;2022-07-21T13:49:53;7.82;;;6.20;;
37945;SDS011;23769;52.478;13.448;2022-07-21T13:52:20;10.50;;;6.18;;
37945;SDS011;23769;52.478;13.448;2022-07-21T13:54:47;9.52;;;6.13;;
37945;SDS011;23769;52.478;13.448;2022-07-21T13:57:15;8.90;;;5.75;;
37945;SDS011;23769;52.478;13.448;2022-07-21T13:59:43;6.30;;;5.03;;
37945;SDS011;23769;52.478;13.448;2022-07-21T14:02:11;9.98;;;6.68;;
37945;SDS011;23769;52.478;13.448;2022-07-21T14:04:38;10.23;;;6.55;;
37945;SDS011;23769;52.478;13.448;2022-07-21T14:07:05;10.75;;;5.88;;
37945;SDS011;23769;52.478;13.448;2022-07-21T14:09:32;7.50;;;6.05;;
37945;SDS011;23769;52.478;13.448;2022-07-21T14:11:59;13.40;;;6.68;;
37945;SDS011;23769;52.478;13.448;2022-07-21T14:14:28;7.53;;;5.22;;
37945;SDS011;23769;52.478;13.448;2022-07-21T14:16:55;8.25;;;7.15;;
37945;SDS011;23769;52.478;13.448;2022-07-21T14:19:22;10.90;;;6.03;;
37945;SDS011;23769;52.478;13.448;2022-07-21T14:21:50;13.45;;;6.40;;
37945;SDS011;23769;52.478;13.448;2022-07-21T14:24:17;6.20;;;5.47;;
37945;SDS011;23769;52.478;13.448;2022-07-21T14:27:01;12.85;;;8.75;;
37945;SDS011;23769;52.478;13.448;2022-07-21T14:29:30;7.10;;;6.28;;
37945;SDS011;23769;52.478;13.448;2022-07-21T14:31:57;8.77;;;6.22;;
37945;SDS011;23769;52.478;13.448;2022-07-21T14:34:25;7.63;;;6.93;;
37945;SDS011;23769;52.478;13.448;2022-07-21T14:36:52;7.88;;;5.75;;
37945;SDS011;23769;52.478;13.448;2022-07-21T14:39:19;9.30;;;5.47;;
37945;SDS011;23769;52.478;13.448;2022-07-21T14:41:46;7.25;;;5.90;;